Latest Weather Observations for Cobar

IDN60801

Issued at 9:02 am EST Sunday 26 April 2015 (issued every 30 minutes, with the page automatically refreshed every 10 minutes)

About weather observations | Map of weather stations | Latest weather observations for NSW | Other Formats
Station Details ID: 048027 Name: COBAR MO Lat: -31.48 Lon: 145.83 Height: 260.0 m
Data from the previous 72 hours. | See also: Recent months at Cobar
Date/Time
EST
Temp
°C
App
Temp
°C
Dew
Point
Rel
Hum
%
Delta-T
°C
Wind Press
QNH
hPa
Press
MSL
hPa
Rain
since 9 am
mm
Dir
 
Spd
km/h
Gust
km/h
Spd
kts
Gust
kts
26/09:00am 10.7 6.9 9.1 90 0.8 WSW 19 19 10 10 1018.6 1018.0 0.8
26/08:30am 10.3 6.2 8.5 89 0.9 WSW 20 26 11 14 1018.3 - 0.8
26/08:00am 10.1 6.2 8.5 90 0.8 WSW 19 26 10 14 1017.8 - 0.8
26/07:30am 10.0 6.8 8.4 90 0.8 WSW 15 22 8 12 1017.1 - 0.8
26/07:00am 9.8 6.2 8.2 90 0.8 SW 17 28 9 15 1016.7 - 0.8
26/06:30am 9.7 5.6 7.9 88 0.9 SW 19 26 10 14 1016.1 - 0.8
26/06:00am 9.5 5.4 7.9 90 0.8 WSW 19 22 10 12 1015.7 1015.0 0.8
26/05:30am 9.3 5.9 7.6 89 0.8 WSW 15 24 8 13 1015.4 - 0.8
26/05:04am 8.6 5.1 7.3 91 0.6 W 15 20 8 11 1015.1 - 0.8
26/05:00am 8.5 5.0 7.2 91 0.6 W 15 20 8 11 1015.2 - 0.8
26/04:30am 7.7 4.9 6.8 94 0.4 W 11 17 6 9 1014.9 - 0.8
26/04:00am 7.3 4.8 6.4 94 0.4 W 9 11 5 6 1014.7 - 0.8
26/03:30am 8.0 5.5 6.7 91 0.6 W 9 13 5 7 1014.6 - 0.8
26/03:00am 8.2 5.7 6.7 90 0.7 W 9 13 5 7 1014.4 1013.7 0.8
26/02:30am 8.3 5.5 6.8 90 0.7 WSW 11 15 6 8 1014.5 - 0.8
26/02:00am 8.5 5.4 7.2 91 0.6 WSW 13 17 7 9 1014.8 - 0.8
26/01:47am 8.5 5.5 7.5 93 0.5 WSW 13 17 7 9 1014.8 - 0.8
26/01:30am 8.8 5.8 7.6 92 0.6 WSW 13 20 7 11 1014.7 - 0.8
26/01:00am 9.4 5.6 7.7 89 0.8 WSW 17 22 9 12 1014.7 - 0.8
26/12:30am 9.6 5.8 7.5 87 1.0 WSW 17 24 9 13 1014.3 - 0.8
26/12:00am 9.8 5.4 7.3 84 1.2 WSW 20 28 11 15 1014.1 1013.4 0.8
 
Date/Time
EST
Temp
°C
App
Temp
°C
Dew
Point
Rel
Hum
%
Delta-T
°C
Wind Press
QNH
hPa
Press
MSL
hPa
Rain
since 9 am
mm
Dir
 
Spd
km/h
Gust
km/h
Spd
kts
Gust
kts
25/11:55pm 9.8 5.4 7.3 84 1.2 WSW 20 33 11 18 1014.1 - 0.8
25/11:48pm 9.7 5.0 7.6 87 1.0 WSW 22 32 12 17 1014.0 - 0.8
25/11:30pm 10.1 5.8 7.8 86 1.1 WSW 20 33 11 18 1014.0 - 0.8
25/11:00pm 10.0 4.9 7.7 86 1.1 WSW 24 35 13 19 1013.8 - 0.8
25/10:30pm 9.8 5.1 7.7 87 1.0 WSW 22 33 12 18 1013.5 - 0.8
25/10:05pm 10.0 4.9 7.5 84 1.2 WSW 24 33 13 18 1013.3 - 0.8
25/10:00pm 10.0 5.2 7.5 84 1.2 WSW 22 32 12 17 1013.3 - 0.8
25/09:30pm 10.4 5.3 7.5 82 1.4 WSW 24 39 13 21 1013.2 - 0.8
25/09:00pm 10.6 5.9 7.7 82 1.4 W 22 33 12 18 1013.0 1012.2 0.8
25/08:30pm 10.7 5.2 7.4 80 1.6 W 26 39 14 21 1012.4 - 0.8
25/08:00pm 10.4 6.1 7.7 83 1.3 W 20 26 11 14 1011.9 - 0.8
25/07:30pm 10.4 6.7 8.0 85 1.2 W 17 24 9 13 1011.5 - 0.8
25/07:00pm 10.9 7.4 8.9 87 1.0 W 17 22 9 12 1011.1 - 0.8
25/06:30pm 12.0 7.9 8.0 76 2.0 W 19 28 10 15 1010.5 - 0.4
25/06:00pm 11.6 8.0 8.2 79 1.7 W 17 24 9 13 1009.8 1009.1 0.4
25/05:30pm 11.8 8.7 9.0 83 1.4 W 15 24 8 13 1009.5 - 0.4
25/05:18pm 11.7 8.7 9.4 86 1.2 W 15 24 8 13 1009.4 - 0.4
25/05:05pm 11.3 7.0 9.3 87 1.0 W 22 35 12 19 1009.4 - 0.4
25/05:00pm 11.6 6.8 8.8 83 1.4 W 24 35 13 19 1009.6 - 0.0
25/04:30pm 13.1 5.3 6.8 65 3.1 W 37 56 20 30 1008.9 - 0.0
25/04:28pm 13.5 6.0 6.5 62 3.4 W 35 56 19 30 1008.7 - 0.0
25/04:00pm 17.7 10.8 0.0 30 7.8 WNW 26 41 14 22 1007.6 - 0.0
25/03:30pm 18.0 10.9 1.6 33 7.5 NW 28 41 15 22 1007.6 - 0.0
25/03:00pm 17.7 11.4 1.7 34 7.3 NW 24 39 13 21 1007.6 1006.9 0.0
25/02:30pm 17.7 11.8 1.4 33 7.4 NW 22 41 12 22 1007.7 - 0.0
25/02:00pm 17.9 12.3 1.0 32 7.6 WNW 20 33 11 18 1007.9 - 0.0
25/01:30pm 17.7 11.8 2.0 35 7.2 WNW 22 35 12 19 1008.0 - 0.0
25/01:00pm 17.6 11.2 1.2 33 7.4 WNW 24 37 13 20 1008.4 - 0.0
25/12:30pm 17.9 11.7 2.0 34 7.3 NNW 24 37 13 20 1008.6 - 0.0
25/12:00pm 18.4 13.5 2.2 34 7.5 WNW 17 28 9 15 1009.0 1008.2 0.0
25/11:30am 16.8 10.6 2.4 38 6.6 NW 24 30 13 16 1009.4 - 0.0
25/11:00am 17.1 11.8 3.2 39 6.5 W 20 30 11 16 1009.8 - 0.0
25/10:30am 17.5 13.0 4.1 41 6.4 WNW 17 28 9 15 1009.7 - 0.0
25/10:00am 16.0 11.2 4.4 46 5.5 W 19 28 10 15 1010.1 - 0.0
25/09:30am 15.8 12.0 6.0 52 4.8 W 15 22 8 12 1010.1 - 0.0
25/09:00am 15.0 11.9 7.2 59 3.9 W 13 20 7 11 1010.0 1009.2 0.0
25/08:30am 14.2 11.7 6.7 60 3.7 WSW 9 13 5 7 1010.0 - 0.0
25/08:00am 13.2 12.4 6.6 64 3.2 CALM 0 0 0 0 1009.6 - 0.0
25/07:30am 11.9 10.0 6.7 70 2.5 W 6 7 3 4 1009.4 - 0.0
25/07:00am 11.3 8.8 6.7 73 2.2 WSW 9 11 5 6 1009.2 - 0.0
25/06:30am 11.5 8.6 6.5 71 2.4 WSW 11 13 6 7 1009.1 - 0.0
25/06:00am 12.3 9.0 6.5 67 2.8 SW 13 19 7 10 1009.0 1008.2 0.0
25/05:30am 12.9 8.9 6.5 65 3.1 SW 17 24 9 13 1008.7 - 0.0
25/05:00am 13.2 9.7 7.1 66 3.0 WSW 15 22 8 12 1008.3 - 0.0
25/04:30am 13.3 9.5 6.0 61 3.5 W 15 20 8 11 1008.2 - 0.0
25/04:00am 12.4 9.4 5.9 64 3.1 WNW 11 13 6 7 1008.0 - 0.0
25/03:30am 12.3 9.6 5.8 64 3.1 NW 9 13 5 7 1007.7 - 0.0
25/03:00am 12.4 9.8 5.9 64 3.1 NW 9 11 5 6 1007.9 1007.2 0.0
25/02:30am 12.8 10.1 5.4 60 3.5 NW 9 13 5 7 1008.0 - 0.0
25/02:00am 13.6 10.4 5.2 57 4.0 NW 11 13 6 7 1008.2 - 0.0
25/01:30am 14.2 11.0 5.2 54 4.3 NW 11 13 6 7 1008.6 - 0.0
25/01:00am 14.2 11.0 5.2 54 4.3 NW 11 13 6 7 1008.4 - 0.0
25/12:30am 14.5 11.4 5.6 55 4.3 N 11 11 6 6 1008.6 - 0.0
25/12:00am 15.0 11.9 5.5 53 4.6 N 11 13 6 7 1008.8 1008.0 0.0
 
Date/Time
EST
Temp
°C
App
Temp
°C
Dew
Point
Rel
Hum
%
Delta-T
°C
Wind Press
QNH
hPa
Press
MSL
hPa
Rain
since 9 am
mm
Dir
 
Spd
km/h
Gust
km/h
Spd
kts
Gust
kts
24/11:30pm 15.5 12.4 5.6 51 4.8 NNW 11 13 6 7 1009.0 - 0.0
24/11:00pm 15.7 12.6 5.6 51 4.9 N 11 13 6 7 1009.1 - 0.0
24/10:30pm 15.8 13.0 6.8 55 4.5 N 11 13 6 7 1009.2 - 0.0
24/10:00pm 16.0 13.5 6.5 53 4.7 N 9 11 5 6 1009.3 - 0.0
24/09:30pm 16.1 13.3 6.9 54 4.6 N 11 13 6 7 1009.4 - 0.0
24/09:00pm 16.7 14.4 7.5 54 4.7 N 9 9 5 5 1009.5 1008.7 0.0
24/08:30pm 17.5 15.7 7.8 53 5.0 NNW 7 7 4 4 1009.4 - 0.0
24/08:00pm 17.6 15.7 7.7 52 5.1 NNW 7 9 4 5 1009.4 - 0.0
24/07:30pm 18.2 16.3 7.7 50 5.4 NNW 7 9 4 5 1009.2 - 0.0
24/07:00pm 19.3 17.3 7.3 45 6.2 NW 7 9 4 5 1008.9 - 0.0
24/06:30pm 20.5 18.1 7.2 42 6.9 WNW 9 11 5 6 1008.6 - 0.0
24/06:00pm 20.9 18.0 6.7 39 7.3 WNW 11 17 6 9 1008.3 1007.6 0.0
24/05:30pm 21.7 17.5 5.8 35 8.1 WNW 17 20 9 11 1008.1 - 0.0
24/05:00pm 22.0 17.5 6.0 35 8.2 WNW 19 24 10 13 1007.9 - 0.0
24/04:30pm 22.3 18.4 5.3 33 8.6 W 15 30 8 16 1007.9 - 0.0
24/04:00pm 23.1 17.9 5.5 32 9.0 WNW 22 33 12 18 1007.8 - 0.0
24/03:30pm 23.3 18.8 6.1 33 8.9 WNW 19 28 10 15 1008.0 - 0.0
24/03:00pm 22.4 17.4 6.3 35 8.3 WNW 22 32 12 17 1008.2 1007.5 0.0
24/02:30pm 22.5 18.2 6.8 36 8.2 W 19 28 10 15 1008.3 - 0.0
24/02:00pm 22.4 18.2 7.4 38 7.9 W 19 28 10 15 1008.4 - 0.0
24/01:30pm 22.2 18.4 7.4 38 7.8 W 17 30 9 16 1008.7 - 0.0
24/01:00pm 22.5 17.7 7.3 37 8.0 NW 22 30 12 16 1009.2 - 0.0
24/12:30pm 21.4 16.2 7.2 40 7.4 WSW 24 35 13 19 1009.6 - 0.0
24/12:00pm 21.2 16.4 7.4 41 7.2 W 22 30 12 16 1010.3 1009.5 0.0
24/11:30am 20.5 16.3 8.4 45 6.4 W 20 33 11 18 1010.7 - 0.0
24/11:00am 19.7 16.4 9.5 51 5.5 W 17 28 9 15 1010.9 - 0.0
24/10:30am 19.7 15.9 9.0 50 5.7 W 19 26 10 14 1011.2 - 0.0
24/10:00am 19.0 16.1 9.5 54 5.1 W 15 22 8 12 1011.1 - 0.0
24/09:30am 18.1 14.5 9.9 58 4.4 WSW 19 24 10 13 1011.3 - 0.0
24/09:00am 17.6 15.3 10.6 63 3.8 W 13 19 7 10 1011.2 1010.5 0.0
24/08:30am 15.8 14.6 10.4 70 2.9 WNW 7 9 4 5 1011.0 - 0.0
24/08:00am 14.5 13.2 9.9 74 2.4 NW 7 9 4 5 1010.9 - 0.0
24/07:30am 13.2 11.9 9.9 80 1.7 NW 7 9 4 5 1010.7 - 0.0
24/07:00am 12.9 11.6 9.8 81 1.6 NW 7 7 4 4 1010.3 - 0.0
24/06:30am 12.8 11.4 9.7 81 1.6 NW 7 9 4 5 1010.2 - 0.0
24/06:00am 12.9 11.1 9.6 80 1.7 WNW 9 9 5 5 1010.2 1009.4 0.0
24/05:30am 12.7 11.4 9.8 82 1.5 NW 7 9 4 5 1010.1 - 0.0
24/05:00am 13.0 11.3 9.7 80 1.7 NW 9 9 5 5 1009.9 - 0.0
24/04:30am 13.5 11.7 9.4 76 2.1 W 9 11 5 6 1009.7 - 0.0
24/04:00am 13.1 11.3 9.4 78 1.9 WNW 9 13 5 7 1009.9 - 0.0
24/03:30am 14.1 12.9 9.5 74 2.4 W 6 9 3 5 1010.0 - 0.0
24/03:00am 14.3 13.1 9.7 74 2.4 W 6 7 3 4 1010.2 1009.4 0.0
24/02:30am 14.4 13.3 9.8 74 2.4 W 6 7 3 4 1010.4 - 0.0
24/02:00am 15.0 13.8 9.7 70 2.8 W 6 7 3 4 1010.8 - 0.0
24/01:30am 16.4 14.6 9.4 63 3.7 W 9 11 5 6 1010.8 - 0.0
24/01:00am 16.5 15.0 9.3 62 3.8 W 7 9 4 5 1011.1 - 0.0
24/12:30am 16.7 14.9 9.3 61 3.9 W 9 11 5 6 1011.3 - 0.0
24/12:00am 17.0 14.7 9.0 59 4.2 W 11 13 6 7 1011.4 1010.7 0.0
 
Date/Time
EST
Temp
°C
App
Temp
°C
Dew
Point
Rel
Hum
%
Delta-T
°C
Wind Press
QNH
hPa
Press
MSL
hPa
Rain
since 9 am
mm
Dir
 
Spd
km/h
Gust
km/h
Spd
kts
Gust
kts
23/11:30pm 17.2 15.2 8.8 57 4.4 W 9 11 5 6 1011.5 - 0.0
23/11:00pm 17.2 15.2 8.8 57 4.4 WSW 9 11 5 6 1011.7 - 0.0
23/10:30pm 17.5 15.1 8.7 56 4.6 WSW 11 15 6 8 1011.9 - 0.0
23/10:00pm 18.0 15.5 8.4 53 5.0 W 11 15 6 8 1012.4 - 0.0
23/09:30pm 18.2 15.7 8.4 52 5.1 WSW 11 13 6 7 1012.3 - 0.0
23/09:00pm 18.5 16.0 8.4 51 5.3 WSW 11 13 6 7 1012.3 1011.6 0.0
23/08:30pm 18.8 16.3 8.3 50 5.5 WSW 11 13 6 7 1012.3 - 0.0
23/08:00pm 18.9 16.8 8.2 50 5.6 WSW 9 13 5 7 1011.9 - 0.0
23/07:30pm 19.2 17.1 8.1 48 5.8 WSW 9 13 5 7 1012.0 - 0.0
23/07:00pm 19.7 17.4 7.6 45 6.3 W 9 13 5 7 1012.0 - 0.0
23/06:30pm 20.1 17.8 7.6 44 6.5 WSW 9 11 5 6 1011.9 - 0.0
23/06:00pm 20.8 18.5 7.6 42 6.9 W 9 13 5 7 1011.7 1011.0 0.0
23/05:30pm 21.5 18.3 6.8 38 7.6 W 13 17 7 9 1011.4 - 0.0
23/05:00pm 21.9 19.1 6.9 38 7.8 W 11 19 6 10 1011.2 - 0.0
23/04:30pm 22.3 19.5 7.0 37 8.0 WSW 11 17 6 9 1011.3 - 0.0
23/04:00pm 22.9 19.4 7.1 36 8.3 W 15 20 8 11 1011.1 - 0.0
23/03:30pm 22.1 18.9 6.9 37 7.9 WSW 13 20 7 11 1011.4 - 0.0
23/03:00pm 22.4 18.9 7.1 37 8.0 WSW 15 20 8 11 1011.6 1010.9 0.0
23/02:30pm 22.4 18.5 7.1 37 8.0 W 17 24 9 13 1011.7 - 0.0
23/02:00pm 22.2 18.6 6.8 37 8.0 WSW 15 19 8 10 1011.7 - 0.0
23/01:30pm 23.1 19.6 7.4 36 8.3 WSW 15 20 8 11 1012.0 - 0.0
23/01:00pm 22.5 19.3 7.0 36 8.1 SSW 13 24 7 13 1012.7 - 0.0
23/12:30pm 22.4 19.0 7.6 38 7.8 SSW 15 22 8 12 1013.3 - 0.0
23/12:00pm 22.0 19.0 7.5 39 7.6 SSW 13 19 7 10 1013.9 1013.2 0.0
23/11:30am 20.9 17.5 7.5 42 7.0 SSW 15 22 8 12 1014.7 - 0.0
23/11:00am 20.4 17.0 7.5 43 6.7 SSW 15 20 8 11 1015.1 - 0.0
23/10:30am 19.5 17.0 8.2 48 5.9 SW 11 17 6 9 1015.2 - 0.0
23/10:00am 18.3 15.9 8.6 53 5.1 SW 11 17 6 9 1015.3 - 0.0
23/09:30am 17.3 15.1 8.0 54 4.8 WSW 9 15 5 8 1015.5 - 0.0

Other Formats:

Comma delimited format used in spreadsheet applications
http://www.bom.gov.au/fwo/IDN60801/IDN60801.94711.axf

JavaScript Object Notation format (JSON) in row-major order
http://www.bom.gov.au/fwo/IDN60801/IDN60801.94711.json